This is the latest recevied weather packets stored in our database for station/object WT9M-8. If no packets are shown the sender has not sent any weather packets the latest 10 day(s).
| Time | Temp. | Humidity | Pressure | Rain* | Wind** | Luminosity | Snow |
|---|---|---|---|---|---|---|---|
| 1777865433 | 5.56° C | 74% | 1004.6 hPa | 0 mm | - | 0 W/m² | - |
| 1777863636 | 7.22° C | 72% | 1004.7 hPa | 0 mm | - | 0 W/m² | - |
| 1777859424 | 10.56° C | 70% | 1004 hPa | 0 mm | - | 0 W/m² | - |
| 1777855231 | 18.89° C | 42% | 1003.7 hPa | 0 mm | - | 8 W/m² | - |
| 1777854627 | 19.44° C | 40% | 1003.9 hPa | 0 mm | - | 12 W/m² | - |
| 1777854040 | 20.56° C | 38% | 1003.9 hPa | 0 mm | - | 15 W/m² | - |
| 1777851016 | 22.22° C | 34% | 1003.5 hPa | 0 mm | - | 27 W/m² | - |
| 1777839626 | 26.67° C | 37% | 1003.9 hPa | 0 mm | - | 554 W/m² | - |
| 1777839021 | 26.67° C | 37% | 1004.2 hPa | 0 mm | - | 585 W/m² | - |
| 1777838417 | 26.11° C | 39% | 1004.1 hPa | 0 mm | - | 608 W/m² | - |
| 1777834828 | 24.44° C | 41% | 1004.7 hPa | 0 mm | - | 652 W/m² | - |
| 1777828842 | 21.67° C | 44% | 1005.8 hPa | 0 mm | - | 603 W/m² | - |
| 1777827029 | 20.56° C | 45% | 1006.1 hPa | 0 mm | - | 528 W/m² | - |
| 1777824026 | 20° C | 44% | 1006.2 hPa | 0 mm | - | 457 W/m² | - |
| 1777821647 | 18.33° C | 46% | 1006.5 hPa | 0 mm | - | 405 W/m² | - |
| 1777806636 | 11.11° C | 61% | 1008.7 hPa | 0 mm | - | 2 W/m² | - |
| 1777805426 | 11.11° C | 61% | 1008.6 hPa | 0 mm | - | 0 W/m² | - |
| 1777800628 | 10.56° C | 57% | 1009.6 hPa | 0 mm | - | 0 W/m² | - |
| 1777793432 | 4.44° C | 83% | 1010.4 hPa | 0 mm | - | 0 W/m² | - |
| 1777787452 | 2.22° C | 79% | 1011.1 hPa | 0 mm | - | 0 W/m² | - |
| 1777782633 | 2.78° C | 76% | 1011.5 hPa | 0 mm | - | 0 W/m² | - |
| 1777781423 | 2.78° C | 74% | 1011.8 hPa | 0 mm | - | 0 W/m² | - |
| 1777776628 | 5° C | 69% | 1012.4 hPa | 0 mm | - | 0 W/m² | - |
| 1777776024 | 5° C | 67% | 1012.2 hPa | 0 mm | - | 0 W/m² | - |
| 1777771853 | 8.89° C | 63% | 1012.4 hPa | 0 mm | - | 0 W/m² | - |
* Rain latest hour (hover to see other rain measurements)
** Current wind speed in m/s (hover to see current wind gust speed)